logo
Search for airport 
image banner adimage banner adimage banner ad
image banner ad

22VT - Northeastern Vermont Rgnl Hospital

Located in Johnsbury, United States

ICAO - 22VT, IATA -

Data provided by Airmate  

General information

Coordinates: N44°26'47" W72°0'38"
Elevation is 766 feet MSL.
 
View others Airports in Vermont

Operational data

Special qualification required
Current time UTC:
Current local time:
Weather at : KCDA - Caledonia County ( 14 km )
METAR: KCDA 131535Z AUTO 19008KT 10SM OVC038 09/01 A2939 RMK AO2 T00880010
View NOTAMs / SUP AIP / TFR affecting this airport [VIEW]
Communications frequencies: [VIEW]

Runways:

Airport contact information

Address: Johnsbury United States

Satellite view of 22VT